CAL066 ROAH-RJTT
Flight info
| Callsign | CAL066 |
|---|---|
| Flight time | 1h 55m |
| Altitude | 41000 |
| Route | AMAMI Y574 SHIBK Y57 SUKBO Y571 BILLY Y21 AKSEL |
| Aircraft | A359/H-SDE1E2E3FGHIJ1J2J3J4J5M1P2RWY/LB1D1 |
Departure
| Time | 2026-04-21 13:06 |
|---|---|
| Airport | Naha International Airport (ROAH) |
Arrival
| Time | 2026-04-21 15:01 |
|---|---|
| Airport | Tokyo Haneda International Airport (RJTT) |
| Time | Latitude | Longitude | Altitude | Speed | Heading |
|---|---|---|---|---|---|
| 2026-04-21 12:25 | 26.20723 | 127.64934 | 26 ft | 0 kts | 28° |
| 2026-04-21 12:53 | 26.20717 | 127.64931 | 30 ft | 2 kts | 27° |
| 2026-04-21 12:53 | 26.20699 | 127.64921 | 31 ft | 3 kts | 22° |
| 2026-04-21 12:54 | 26.20681 | 127.64913 | 31 ft | 3 kts | 23° |
| 2026-04-21 12:54 | 26.20670 | 127.64908 | 31 ft | 2 kts | 22° |
| 2026-04-21 12:54 | 26.20659 | 127.64902 | 31 ft | 3 kts | 352° |
| 2026-04-21 12:54 | 26.20652 | 127.64902 | 31 ft | 3 kts | 311° |
| 2026-04-21 12:55 | 26.20643 | 127.64917 | 31 ft | 3 kts | 286° |
| 2026-04-21 12:55 | 26.20639 | 127.64938 | 31 ft | 3 kts | 274° |
| 2026-04-21 12:55 | 26.20638 | 127.64952 | 30 ft | 0 kts | 268° |
| 2026-04-21 12:55 | 26.20638 | 127.64953 | 30 ft | 4 kts | 268° |
| 2026-04-21 12:57 | 26.20638 | 127.64952 | 30 ft | 0 kts | 267° |
| 2026-04-21 12:57 | 26.20637 | 127.64935 | 31 ft | 4 kts | 265° |
| 2026-04-21 12:58 | 26.20634 | 127.64892 | 31 ft | 7 kts | 266° |
| 2026-04-21 12:58 | 26.20631 | 127.64825 | 28 ft | 10 kts | 267° |
| 2026-04-21 12:58 | 26.20593 | 127.64767 | 30 ft | 11 kts | 204° |
| 2026-04-21 12:58 | 26.20513 | 127.64757 | 29 ft | 13 kts | 175° |
| 2026-04-21 12:59 | 26.20431 | 127.64762 | 29 ft | 11 kts | 178° |
| 2026-04-21 12:59 | 26.20348 | 127.64766 | 30 ft | 12 kts | 176° |
| 2026-04-21 12:59 | 26.20257 | 127.64769 | 29 ft | 15 kts | 178° |
| 2026-04-21 12:59 | 26.20147 | 127.64773 | 28 ft | 17 kts | 178° |
| 2026-04-21 13:00 | 26.20030 | 127.64780 | 28 ft | 18 kts | 177° |
| 2026-04-21 13:00 | 26.19915 | 127.64786 | 28 ft | 17 kts | 177° |
| 2026-04-21 13:00 | 26.19788 | 127.64793 | 28 ft | 19 kts | 177° |
| 2026-04-21 13:00 | 26.19649 | 127.64801 | 28 ft | 19 kts | 178° |
| 2026-04-21 13:01 | 26.19508 | 127.64806 | 28 ft | 21 kts | 178° |
| 2026-04-21 13:01 | 26.19371 | 127.64813 | 28 ft | 19 kts | 177° |
| 2026-04-21 13:01 | 26.19256 | 127.64819 | 28 ft | 16 kts | 178° |
| 2026-04-21 13:01 | 26.19136 | 127.64825 | 28 ft | 18 kts | 178° |
| 2026-04-21 13:02 | 26.19003 | 127.64831 | 28 ft | 17 kts | 178° |
| 2026-04-21 13:02 | 26.18873 | 127.64836 | 27 ft | 20 kts | 178° |
| 2026-04-21 13:02 | 26.18622 | 127.64846 | 27 ft | 19 kts | 178° |
| 2026-04-21 13:03 | 26.18482 | 127.64854 | 27 ft | 20 kts | 177° |
| 2026-04-21 13:03 | 26.18352 | 127.64860 | 27 ft | 14 kts | 178° |
| 2026-04-21 13:03 | 26.18295 | 127.64856 | 27 ft | 0 kts | 195° |
| 2026-04-21 13:04 | 26.18267 | 127.64838 | 29 ft | 9 kts | 221° |
| 2026-04-21 13:04 | 26.18247 | 127.64736 | 24 ft | 16 kts | 268° |
| 2026-04-21 13:05 | 26.18309 | 127.64657 | 24 ft | 15 kts | 347° |
| 2026-04-21 13:05 | 26.18431 | 127.64648 | 27 ft | 31 kts | 356° |
| 2026-04-21 13:05 | 26.18912 | 127.64626 | 27 ft | 105 kts | 358° |
| 2026-04-21 13:05 | 26.19845 | 127.64590 | 208 ft | 149 kts | 0° |
| 2026-04-21 13:06 | 26.20897 | 127.64534 | 816 ft | 155 kts | 360° |
| 2026-04-21 13:06 | 26.22003 | 127.64438 | 1316 ft | 169 kts | 358° |
| 2026-04-21 13:06 | 26.23244 | 127.64294 | 1520 ft | 189 kts | 355° |
| 2026-04-21 13:06 | 26.24622 | 127.64111 | 1739 ft | 213 kts | 354° |
| 2026-04-21 13:07 | 26.26135 | 127.63558 | 1832 ft | 246 kts | 334° |
| 2026-04-21 13:07 | 26.27707 | 127.62632 | 2216 ft | 262 kts | 333° |
| 2026-04-21 13:07 | 26.29338 | 127.61667 | 2864 ft | 268 kts | 333° |
| 2026-04-21 13:07 | 26.30986 | 127.60675 | 3578 ft | 270 kts | 332° |
| 2026-04-21 13:08 | 26.32640 | 127.59661 | 4297 ft | 271 kts | 332° |
| 2026-04-21 13:08 | 26.34296 | 127.58640 | 5005 ft | 273 kts | 332° |
| 2026-04-21 13:08 | 26.35965 | 127.57612 | 5700 ft | 275 kts | 332° |
| 2026-04-21 13:08 | 26.37644 | 127.56580 | 6375 ft | 277 kts | 332° |
| 2026-04-21 13:09 | 26.39335 | 127.55543 | 7014 ft | 278 kts | 331° |
| 2026-04-21 13:09 | 26.41036 | 127.54504 | 7639 ft | 279 kts | 331° |
| 2026-04-21 13:09 | 26.42830 | 127.53643 | 8263 ft | 283 kts | 343° |
| 2026-04-21 13:09 | 26.44771 | 127.53442 | 8832 ft | 289 kts | 4° |
| 2026-04-21 13:10 | 26.46736 | 127.53982 | 9419 ft | 294 kts | 17° |
| 2026-04-21 13:10 | 26.48672 | 127.54773 | 9992 ft | 298 kts | 18° |
| 2026-04-21 13:10 | 26.50643 | 127.55613 | 10338 ft | 310 kts | 18° |
| 2026-04-21 13:10 | 26.52706 | 127.56486 | 10566 ft | 325 kts | 18° |
| 2026-04-21 13:11 | 26.54866 | 127.57393 | 10786 ft | 338 kts | 18° |
| 2026-04-21 13:11 | 26.57114 | 127.58333 | 11014 ft | 351 kts | 18° |
| 2026-04-21 13:11 | 26.59439 | 127.59307 | 11269 ft | 362 kts | 19° |
| 2026-04-21 13:11 | 26.61812 | 127.60306 | 11644 ft | 367 kts | 19° |
| 2026-04-21 13:12 | 26.64215 | 127.61314 | 12056 ft | 371 kts | 19° |
| 2026-04-21 13:12 | 26.66641 | 127.62328 | 12484 ft | 374 kts | 18° |
| 2026-04-21 13:12 | 26.69088 | 127.63348 | 12909 ft | 377 kts | 18° |
| 2026-04-21 13:12 | 26.71558 | 127.64377 | 13330 ft | 380 kts | 18° |
| 2026-04-21 13:13 | 26.74046 | 127.65413 | 13739 ft | 383 kts | 18° |
| 2026-04-21 13:13 | 26.76557 | 127.66459 | 14119 ft | 387 kts | 18° |
| 2026-04-21 13:13 | 26.79085 | 127.67512 | 14506 ft | 389 kts | 18° |
| 2026-04-21 13:13 | 26.81625 | 127.68571 | 14896 ft | 391 kts | 18° |
| 2026-04-21 13:14 | 26.84184 | 127.69638 | 15285 ft | 393 kts | 18° |
| 2026-04-21 13:14 | 26.86756 | 127.70710 | 15672 ft | 396 kts | 18° |
| 2026-04-21 13:14 | 26.89346 | 127.71790 | 16051 ft | 398 kts | 18° |
| 2026-04-21 13:14 | 26.91950 | 127.72877 | 16437 ft | 401 kts | 18° |
| 2026-04-21 13:15 | 26.94572 | 127.73972 | 16802 ft | 404 kts | 18° |
| 2026-04-21 13:15 | 26.97209 | 127.75073 | 17184 ft | 406 kts | 18° |
| 2026-04-21 13:15 | 26.99863 | 127.76183 | 17549 ft | 409 kts | 18° |
| 2026-04-21 13:15 | 27.02536 | 127.77300 | 17917 ft | 411 kts | 18° |
| 2026-04-21 13:16 | 27.05224 | 127.78425 | 18286 ft | 413 kts | 18° |
| 2026-04-21 13:16 | 27.07927 | 127.79557 | 18614 ft | 416 kts | 18° |
| 2026-04-21 13:16 | 27.10648 | 127.80696 | 18938 ft | 418 kts | 17° |
| 2026-04-21 13:16 | 27.13377 | 127.81840 | 19252 ft | 420 kts | 17° |
| 2026-04-21 13:17 | 27.16123 | 127.83004 | 19573 ft | 423 kts | 18° |
| 2026-04-21 13:17 | 27.18787 | 127.84431 | 19895 ft | 428 kts | 27° |
| 2026-04-21 13:17 | 27.21218 | 127.86398 | 20215 ft | 434 kts | 39° |
| 2026-04-21 13:17 | 27.23403 | 127.88756 | 20521 ft | 437 kts | 43° |
| 2026-04-21 13:18 | 27.25526 | 127.91214 | 20830 ft | 440 kts | 44° |
| 2026-04-21 13:18 | 27.27653 | 127.93701 | 21141 ft | 442 kts | 44° |
| 2026-04-21 13:18 | 27.29792 | 127.96195 | 21445 ft | 444 kts | 44° |
| 2026-04-21 13:18 | 27.31946 | 127.98698 | 21742 ft | 446 kts | 44° |
| 2026-04-21 13:19 | 27.34086 | 128.01178 | 22029 ft | 449 kts | 44° |
| 2026-04-21 13:19 | 27.36268 | 128.03705 | 22316 ft | 451 kts | 43° |
| 2026-04-21 13:19 | 27.38461 | 128.06243 | 22602 ft | 453 kts | 43° |
| 2026-04-21 13:19 | 27.40661 | 128.08790 | 22884 ft | 456 kts | 43° |
| 2026-04-21 13:20 | 27.42157 | 128.10522 | 23076 ft | 457 kts | 43° |
| 2026-04-21 13:20 | 27.45101 | 128.13935 | 23446 ft | 460 kts | 43° |
| 2026-04-21 13:20 | 27.47236 | 128.16637 | 23700 ft | 464 kts | 48° |
| 2026-04-21 13:20 | 27.49260 | 128.19479 | 23945 ft | 466 kts | 50° |
| 2026-04-21 13:21 | 27.51259 | 128.22360 | 24189 ft | 468 kts | 50° |
| 2026-04-21 13:21 | 27.53260 | 128.25255 | 24429 ft | 469 kts | 50° |
| 2026-04-21 13:21 | 27.55271 | 128.28161 | 24660 ft | 471 kts | 50° |
| 2026-04-21 13:21 | 27.57291 | 128.31076 | 24907 ft | 472 kts | 50° |
| 2026-04-21 13:22 | 27.59316 | 128.33999 | 25146 ft | 474 kts | 50° |
| 2026-04-21 13:22 | 27.61349 | 128.36933 | 25390 ft | 476 kts | 50° |
| 2026-04-21 13:22 | 27.62726 | 128.38920 | 25564 ft | 477 kts | 50° |
| 2026-04-21 13:22 | 27.65436 | 128.42834 | 25892 ft | 479 kts | 50° |
| 2026-04-21 13:23 | 27.66822 | 128.44837 | 26073 ft | 480 kts | 50° |
| 2026-04-21 13:23 | 27.69549 | 128.48780 | 26410 ft | 482 kts | 50° |
| 2026-04-21 13:23 | 27.70915 | 128.50756 | 26571 ft | 483 kts | 50° |
| 2026-04-21 13:23 | 27.72985 | 128.53752 | 26832 ft | 485 kts | 50° |
| 2026-04-21 13:24 | 27.75065 | 128.56765 | 27093 ft | 487 kts | 50° |
| 2026-04-21 13:24 | 27.77146 | 128.59782 | 27359 ft | 488 kts | 50° |
| 2026-04-21 13:24 | 27.79238 | 128.62816 | 27627 ft | 490 kts | 50° |
| 2026-04-21 13:24 | 27.81338 | 128.65866 | 27907 ft | 492 kts | 50° |
| 2026-04-21 13:25 | 27.83442 | 128.68921 | 28187 ft | 494 kts | 50° |
| 2026-04-21 13:25 | 27.85556 | 128.71996 | 28482 ft | 496 kts | 50° |
| 2026-04-21 13:25 | 27.87679 | 128.75083 | 28764 ft | 498 kts | 50° |
| 2026-04-21 13:25 | 27.89807 | 128.78181 | 29052 ft | 500 kts | 50° |
| 2026-04-21 13:26 | 27.91946 | 128.81298 | 29345 ft | 502 kts | 50° |
| 2026-04-21 13:26 | 27.94093 | 128.84428 | 29640 ft | 505 kts | 50° |
| 2026-04-21 13:26 | 27.96247 | 128.87571 | 29931 ft | 507 kts | 50° |
| 2026-04-21 13:26 | 27.98411 | 128.90730 | 30224 ft | 509 kts | 50° |
| 2026-04-21 13:27 | 28.00582 | 128.93901 | 30486 ft | 511 kts | 50° |
| 2026-04-21 13:27 | 28.02763 | 128.97092 | 30768 ft | 513 kts | 50° |
| 2026-04-21 13:27 | 28.04950 | 129.00292 | 31065 ft | 515 kts | 50° |
| 2026-04-21 13:27 | 28.07146 | 129.03508 | 31337 ft | 517 kts | 50° |
| 2026-04-21 13:28 | 28.09349 | 129.06736 | 31617 ft | 519 kts | 50° |
| 2026-04-21 13:28 | 28.11557 | 129.09975 | 31875 ft | 521 kts | 50° |
| 2026-04-21 13:28 | 28.13777 | 129.13232 | 32143 ft | 523 kts | 50° |
| 2026-04-21 13:28 | 28.16003 | 129.16502 | 32408 ft | 525 kts | 50° |
| 2026-04-21 13:29 | 28.18239 | 129.19789 | 32669 ft | 527 kts | 50° |
| 2026-04-21 13:29 | 28.20480 | 129.23086 | 32899 ft | 529 kts | 50° |
| 2026-04-21 13:29 | 28.22730 | 129.26399 | 33172 ft | 531 kts | 50° |
| 2026-04-21 13:29 | 28.24987 | 129.29725 | 33434 ft | 533 kts | 50° |
| 2026-04-21 13:30 | 28.27251 | 129.33063 | 33670 ft | 535 kts | 50° |
| 2026-04-21 13:30 | 28.29522 | 129.36413 | 33910 ft | 537 kts | 50° |
| 2026-04-21 13:30 | 28.31803 | 129.39781 | 34134 ft | 539 kts | 50° |
| 2026-04-21 13:30 | 28.34089 | 129.43159 | 34353 ft | 540 kts | 50° |
| 2026-04-21 13:31 | 28.36373 | 129.46540 | 34658 ft | 539 kts | 51° |
| 2026-04-21 13:31 | 28.38655 | 129.49920 | 34970 ft | 539 kts | 51° |
| 2026-04-21 13:31 | 28.40920 | 129.53309 | 35280 ft | 539 kts | 52° |
| 2026-04-21 13:31 | 28.42904 | 129.56920 | 35581 ft | 540 kts | 62° |
| 2026-04-21 13:32 | 28.44328 | 129.60855 | 35929 ft | 539 kts | 73° |
| 2026-04-21 13:32 | 28.45151 | 129.65001 | 36237 ft | 538 kts | 81° |
| 2026-04-21 13:32 | 28.45716 | 129.69201 | 36552 ft | 537 kts | 83° |
| 2026-04-21 13:32 | 28.46187 | 129.73409 | 36879 ft | 536 kts | 84° |
| 2026-04-21 13:33 | 28.46616 | 129.77612 | 37215 ft | 536 kts | 84° |
| 2026-04-21 13:33 | 28.47034 | 129.81816 | 37539 ft | 535 kts | 85° |
| 2026-04-21 13:33 | 28.47451 | 129.86017 | 37868 ft | 534 kts | 85° |
| 2026-04-21 13:33 | 28.47870 | 129.90208 | 38201 ft | 534 kts | 85° |
| 2026-04-21 13:34 | 28.48292 | 129.94338 | 38517 ft | 533 kts | 85° |
| 2026-04-21 13:34 | 28.48727 | 129.98520 | 38808 ft | 532 kts | 85° |
| 2026-04-21 13:34 | 28.49168 | 130.02701 | 39036 ft | 533 kts | 84° |
| 2026-04-21 13:34 | 28.49613 | 130.06885 | 39208 ft | 534 kts | 84° |
| 2026-04-21 13:35 | 28.50264 | 130.11046 | 39381 ft | 536 kts | 77° |
| 2026-04-21 13:35 | 28.51422 | 130.15076 | 39555 ft | 537 kts | 67° |
| 2026-04-21 13:35 | 28.53131 | 130.18843 | 39735 ft | 537 kts | 57° |
| 2026-04-21 13:35 | 28.55122 | 130.22431 | 39950 ft | 536 kts | 55° |
| 2026-04-21 13:36 | 28.57203 | 130.25947 | 40165 ft | 536 kts | 54° |
| 2026-04-21 13:36 | 28.59328 | 130.29426 | 40349 ft | 536 kts | 53° |
| 2026-04-21 13:36 | 28.61470 | 130.32899 | 40534 ft | 536 kts | 53° |
| 2026-04-21 13:36 | 28.63609 | 130.36373 | 40728 ft | 536 kts | 53° |
| 2026-04-21 13:37 | 28.65742 | 130.39856 | 40901 ft | 536 kts | 53° |
| 2026-04-21 13:37 | 28.67876 | 130.43347 | 41063 ft | 537 kts | 53° |
| 2026-04-21 13:37 | 28.72134 | 130.50345 | 41071 ft | 537 kts | 53° |
| 2026-04-21 13:38 | 28.76368 | 130.57366 | 41070 ft | 537 kts | 53° |
| 2026-04-21 13:38 | 28.80593 | 130.64391 | 41073 ft | 537 kts | 53° |
| 2026-04-21 13:39 | 28.84818 | 130.71428 | 41070 ft | 537 kts | 53° |
| 2026-04-21 13:39 | 28.89035 | 130.78464 | 41074 ft | 537 kts | 53° |
| 2026-04-21 13:40 | 28.93247 | 130.85505 | 41077 ft | 537 kts | 53° |
| 2026-04-21 13:40 | 28.97460 | 130.92557 | 41073 ft | 537 kts | 53° |
| 2026-04-21 13:41 | 29.01665 | 130.99609 | 41075 ft | 537 kts | 53° |
| 2026-04-21 13:41 | 29.05867 | 131.06669 | 41078 ft | 537 kts | 53° |
| 2026-04-21 13:42 | 29.10063 | 131.13729 | 41063 ft | 537 kts | 53° |
| 2026-04-21 13:42 | 29.14257 | 131.20798 | 41065 ft | 537 kts | 53° |
| 2026-04-21 13:43 | 29.18444 | 131.27868 | 41069 ft | 536 kts | 53° |
| 2026-04-21 13:43 | 29.22625 | 131.34941 | 41070 ft | 536 kts | 53° |
| 2026-04-21 13:44 | 29.26801 | 131.42015 | 41073 ft | 536 kts | 53° |
| 2026-04-21 13:44 | 29.30977 | 131.49103 | 41072 ft | 537 kts | 53° |
| 2026-04-21 13:45 | 29.35158 | 131.56195 | 41071 ft | 537 kts | 53° |
| 2026-04-21 13:45 | 29.39349 | 131.63276 | 41073 ft | 537 kts | 53° |
| 2026-04-21 13:46 | 29.43502 | 131.70334 | 41074 ft | 537 kts | 53° |
| 2026-04-21 13:46 | 29.47672 | 131.77459 | 41072 ft | 538 kts | 53° |
| 2026-04-21 13:47 | 29.51835 | 131.84594 | 41071 ft | 538 kts | 53° |
| 2026-04-21 13:47 | 29.55995 | 131.91736 | 41069 ft | 538 kts | 53° |
| 2026-04-21 13:48 | 29.60152 | 131.98885 | 41074 ft | 538 kts | 53° |
| 2026-04-21 13:48 | 29.64312 | 132.06043 | 41074 ft | 539 kts | 53° |
| 2026-04-21 13:49 | 29.68872 | 132.12874 | 41075 ft | 538 kts | 49° |
| 2026-04-21 13:49 | 29.73595 | 132.19567 | 41077 ft | 540 kts | 48° |
| 2026-04-21 13:50 | 29.78369 | 132.26249 | 41081 ft | 541 kts | 48° |
| 2026-04-21 13:50 | 29.83146 | 132.32946 | 41077 ft | 542 kts | 48° |
| 2026-04-21 13:51 | 29.87928 | 132.39675 | 41081 ft | 543 kts | 48° |
| 2026-04-21 13:51 | 29.92707 | 132.46421 | 41077 ft | 544 kts | 48° |
| 2026-04-21 13:52 | 29.97490 | 132.53184 | 41087 ft | 544 kts | 48° |
| 2026-04-21 13:52 | 30.02274 | 132.59959 | 41086 ft | 545 kts | 48° |
| 2026-04-21 13:53 | 30.07056 | 132.66743 | 41089 ft | 545 kts | 48° |
| 2026-04-21 13:53 | 30.11839 | 132.73540 | 41086 ft | 545 kts | 48° |
| 2026-04-21 13:54 | 30.16617 | 132.80342 | 41090 ft | 545 kts | 48° |
| 2026-04-21 13:54 | 30.21389 | 132.87146 | 41090 ft | 545 kts | 48° |
| 2026-04-21 13:55 | 30.26157 | 132.93957 | 41087 ft | 545 kts | 47° |
| 2026-04-21 13:55 | 30.30890 | 133.00728 | 41087 ft | 545 kts | 47° |
| 2026-04-21 13:56 | 30.35650 | 133.07549 | 41087 ft | 545 kts | 47° |
| 2026-04-21 13:56 | 30.40410 | 133.14384 | 41077 ft | 545 kts | 47° |
| 2026-04-21 13:57 | 30.45163 | 133.21218 | 41082 ft | 545 kts | 47° |
| 2026-04-21 13:57 | 30.49914 | 133.28062 | 41089 ft | 545 kts | 47° |
| 2026-04-21 13:58 | 30.54665 | 133.34919 | 41094 ft | 545 kts | 47° |
| 2026-04-21 13:58 | 30.59407 | 133.41773 | 41094 ft | 545 kts | 47° |
| 2026-04-21 13:59 | 30.64148 | 133.48639 | 41097 ft | 545 kts | 47° |
| 2026-04-21 13:59 | 30.68892 | 133.55521 | 41100 ft | 545 kts | 47° |
| 2026-04-21 14:00 | 30.73627 | 133.62401 | 41100 ft | 545 kts | 47° |
| 2026-04-21 14:00 | 30.78362 | 133.69293 | 41100 ft | 546 kts | 47° |
| 2026-04-21 14:01 | 30.83067 | 133.76161 | 41095 ft | 546 kts | 47° |
| 2026-04-21 14:01 | 30.87799 | 133.83070 | 41094 ft | 546 kts | 47° |
| 2026-04-21 14:02 | 30.92533 | 133.89987 | 41087 ft | 546 kts | 47° |
| 2026-04-21 14:03 | 30.99620 | 134.00371 | 41090 ft | 546 kts | 47° |
| 2026-04-21 14:03 | 31.04339 | 134.07302 | 41088 ft | 546 kts | 47° |
| 2026-04-21 14:04 | 31.09053 | 134.14240 | 41079 ft | 545 kts | 47° |
| 2026-04-21 14:04 | 31.13759 | 134.21177 | 41082 ft | 545 kts | 47° |
| 2026-04-21 14:05 | 31.18455 | 134.28112 | 41085 ft | 544 kts | 47° |
| 2026-04-21 14:05 | 31.23141 | 134.35046 | 41080 ft | 543 kts | 47° |
| 2026-04-21 14:06 | 31.27815 | 134.41972 | 41082 ft | 542 kts | 47° |
| 2026-04-21 14:06 | 31.32479 | 134.48898 | 41081 ft | 542 kts | 47° |
| 2026-04-21 14:07 | 31.36350 | 134.54655 | 41081 ft | 542 kts | 47° |
| 2026-04-21 14:07 | 31.41760 | 134.62714 | 41084 ft | 541 kts | 47° |
| 2026-04-21 14:08 | 31.46412 | 134.69658 | 41088 ft | 541 kts | 47° |
| 2026-04-21 14:08 | 31.51056 | 134.76602 | 41088 ft | 542 kts | 47° |
| 2026-04-21 14:09 | 31.54948 | 134.82431 | 41088 ft | 542 kts | 47° |
| 2026-04-21 14:09 | 31.59560 | 134.89351 | 41086 ft | 542 kts | 47° |
| 2026-04-21 14:10 | 31.64198 | 134.96323 | 41085 ft | 542 kts | 47° |
| 2026-04-21 14:10 | 31.68832 | 135.03301 | 41088 ft | 542 kts | 47° |
| 2026-04-21 14:11 | 31.73493 | 135.10265 | 41087 ft | 541 kts | 45° |
| 2026-04-21 14:11 | 31.78475 | 135.16845 | 41089 ft | 538 kts | 42° |
| 2026-04-21 14:12 | 31.83566 | 135.23288 | 41088 ft | 538 kts | 42° |
| 2026-04-21 14:12 | 31.88625 | 135.29779 | 41085 ft | 538 kts | 43° |
| 2026-04-21 14:13 | 31.93647 | 135.36323 | 41086 ft | 539 kts | 43° |
| 2026-04-21 14:13 | 31.98653 | 135.42887 | 41077 ft | 539 kts | 43° |
| 2026-04-21 14:14 | 32.03658 | 135.49466 | 41086 ft | 539 kts | 43° |
| 2026-04-21 14:14 | 32.08665 | 135.56053 | 41087 ft | 539 kts | 43° |
| 2026-04-21 14:15 | 32.13670 | 135.62647 | 41090 ft | 540 kts | 43° |
| 2026-04-21 14:15 | 32.18677 | 135.69254 | 41088 ft | 540 kts | 43° |
| 2026-04-21 14:16 | 32.23649 | 135.75828 | 41087 ft | 540 kts | 43° |
| 2026-04-21 14:16 | 32.28652 | 135.82454 | 41089 ft | 540 kts | 43° |
| 2026-04-21 14:17 | 32.33655 | 135.89091 | 41089 ft | 541 kts | 43° |
| 2026-04-21 14:17 | 32.38654 | 135.95736 | 41087 ft | 541 kts | 43° |
| 2026-04-21 14:18 | 32.43653 | 136.02395 | 41083 ft | 541 kts | 43° |
| 2026-04-21 14:18 | 32.48650 | 136.09054 | 41085 ft | 541 kts | 43° |
| 2026-04-21 14:19 | 32.53682 | 136.15766 | 41084 ft | 541 kts | 43° |
| 2026-04-21 14:19 | 32.58649 | 136.22404 | 41080 ft | 542 kts | 43° |
| 2026-04-21 14:20 | 32.63646 | 136.29096 | 41081 ft | 542 kts | 43° |
| 2026-04-21 14:20 | 32.68672 | 136.35843 | 41082 ft | 542 kts | 43° |
| 2026-04-21 14:21 | 32.73666 | 136.42557 | 41079 ft | 543 kts | 43° |
| 2026-04-21 14:21 | 32.78663 | 136.49288 | 41082 ft | 543 kts | 43° |
| 2026-04-21 14:22 | 32.83660 | 136.56032 | 41076 ft | 544 kts | 43° |
| 2026-04-21 14:22 | 32.88660 | 136.62790 | 41075 ft | 544 kts | 43° |
| 2026-04-21 14:23 | 32.93658 | 136.69558 | 41074 ft | 545 kts | 43° |
| 2026-04-21 14:23 | 32.98662 | 136.76336 | 41074 ft | 545 kts | 43° |
| 2026-04-21 14:24 | 33.03667 | 136.83124 | 41069 ft | 545 kts | 43° |
| 2026-04-21 14:24 | 33.08670 | 136.89927 | 41069 ft | 546 kts | 43° |
| 2026-04-21 14:25 | 33.13671 | 136.96743 | 41069 ft | 546 kts | 43° |
| 2026-04-21 14:25 | 33.18675 | 137.03575 | 41067 ft | 547 kts | 43° |
| 2026-04-21 14:26 | 33.23678 | 137.10419 | 41066 ft | 547 kts | 43° |
| 2026-04-21 14:26 | 33.28684 | 137.17275 | 41064 ft | 548 kts | 43° |
| 2026-04-21 14:27 | 33.33649 | 137.24097 | 41063 ft | 548 kts | 43° |
| 2026-04-21 14:27 | 33.38650 | 137.30981 | 41067 ft | 548 kts | 43° |
| 2026-04-21 14:28 | 33.43648 | 137.37872 | 41062 ft | 548 kts | 43° |
| 2026-04-21 14:28 | 33.48639 | 137.44768 | 41064 ft | 548 kts | 43° |
| 2026-04-21 14:29 | 33.53630 | 137.51677 | 41063 ft | 548 kts | 43° |
| 2026-04-21 14:29 | 33.58619 | 137.58596 | 41062 ft | 549 kts | 43° |
| 2026-04-21 14:30 | 33.63022 | 137.66181 | 41062 ft | 559 kts | 53° |
| 2026-04-21 14:30 | 33.66900 | 137.74292 | 40995 ft | 561 kts | 56° |
| 2026-04-21 14:30 | 33.68778 | 137.78392 | 40738 ft | 561 kts | 56° |
| 2026-04-21 14:31 | 33.70644 | 137.82510 | 40515 ft | 561 kts | 56° |
| 2026-04-21 14:31 | 33.72506 | 137.86631 | 40260 ft | 561 kts | 56° |
| 2026-04-21 14:31 | 33.74370 | 137.90755 | 40007 ft | 561 kts | 56° |
| 2026-04-21 14:31 | 33.76235 | 137.94872 | 39774 ft | 562 kts | 56° |
| 2026-04-21 14:32 | 33.78105 | 137.98993 | 39528 ft | 562 kts | 56° |
| 2026-04-21 14:32 | 33.79977 | 138.03115 | 39295 ft | 562 kts | 56° |
| 2026-04-21 14:32 | 33.81825 | 138.07183 | 39064 ft | 562 kts | 56° |
| 2026-04-21 14:32 | 33.83698 | 138.11311 | 38836 ft | 562 kts | 56° |
| 2026-04-21 14:33 | 33.85567 | 138.15436 | 38528 ft | 561 kts | 56° |
| 2026-04-21 14:33 | 33.87429 | 138.19549 | 37948 ft | 558 kts | 56° |
| 2026-04-21 14:33 | 33.89307 | 138.23702 | 37283 ft | 558 kts | 56° |
| 2026-04-21 14:33 | 33.91137 | 138.27753 | 36634 ft | 558 kts | 56° |
| 2026-04-21 14:34 | 33.92985 | 138.31861 | 35966 ft | 558 kts | 56° |
| 2026-04-21 14:34 | 33.94822 | 138.35977 | 35287 ft | 559 kts | 56° |
| 2026-04-21 14:34 | 33.96659 | 138.40112 | 34543 ft | 561 kts | 57° |
| 2026-04-21 14:34 | 33.98498 | 138.44266 | 33710 ft | 564 kts | 57° |
| 2026-04-21 14:35 | 34.00337 | 138.48445 | 32859 ft | 565 kts | 57° |
| 2026-04-21 14:35 | 34.02178 | 138.52637 | 32019 ft | 566 kts | 57° |
| 2026-04-21 14:35 | 34.04013 | 138.56814 | 31398 ft | 562 kts | 57° |
| 2026-04-21 14:35 | 34.05836 | 138.60961 | 30799 ft | 558 kts | 57° |
| 2026-04-21 14:36 | 34.07648 | 138.65078 | 30205 ft | 554 kts | 56° |
| 2026-04-21 14:36 | 34.09449 | 138.69165 | 29540 ft | 550 kts | 56° |
| 2026-04-21 14:36 | 34.11242 | 138.73227 | 28930 ft | 545 kts | 57° |
| 2026-04-21 14:36 | 34.13014 | 138.77243 | 28341 ft | 540 kts | 57° |
| 2026-04-21 14:37 | 34.14769 | 138.81223 | 27745 ft | 535 kts | 57° |
| 2026-04-21 14:37 | 34.16508 | 138.85173 | 27184 ft | 530 kts | 57° |
| 2026-04-21 14:37 | 34.18229 | 138.89086 | 26604 ft | 526 kts | 57° |
| 2026-04-21 14:37 | 34.19936 | 138.92974 | 26032 ft | 521 kts | 57° |
| 2026-04-21 14:38 | 34.21626 | 138.96830 | 25492 ft | 517 kts | 57° |
| 2026-04-21 14:38 | 34.23299 | 139.00657 | 24920 ft | 513 kts | 58° |
| 2026-04-21 14:38 | 34.24958 | 139.04451 | 24341 ft | 509 kts | 58° |
| 2026-04-21 14:38 | 34.26606 | 139.08222 | 23778 ft | 505 kts | 58° |
| 2026-04-21 14:39 | 34.28197 | 139.11992 | 23083 ft | 504 kts | 62° |
| 2026-04-21 14:39 | 34.29633 | 139.15835 | 22542 ft | 498 kts | 63° |
| 2026-04-21 14:39 | 34.30996 | 139.19662 | 21981 ft | 493 kts | 64° |
| 2026-04-21 14:39 | 34.32312 | 139.23464 | 21423 ft | 487 kts | 64° |
| 2026-04-21 14:40 | 34.33597 | 139.27237 | 20850 ft | 482 kts | 64° |
| 2026-04-21 14:40 | 34.34864 | 139.30972 | 20287 ft | 478 kts | 64° |
| 2026-04-21 14:40 | 34.36123 | 139.34678 | 19713 ft | 473 kts | 64° |
| 2026-04-21 14:40 | 34.37372 | 139.38341 | 19153 ft | 469 kts | 64° |
| 2026-04-21 14:41 | 34.38617 | 139.41979 | 18574 ft | 465 kts | 64° |
| 2026-04-21 14:41 | 34.39834 | 139.45534 | 17952 ft | 461 kts | 64° |
| 2026-04-21 14:41 | 34.41057 | 139.49104 | 17372 ft | 456 kts | 64° |
| 2026-04-21 14:41 | 34.42263 | 139.52626 | 16808 ft | 450 kts | 64° |
| 2026-04-21 14:42 | 34.43452 | 139.56103 | 16241 ft | 444 kts | 64° |
| 2026-04-21 14:42 | 34.44624 | 139.59534 | 15683 ft | 438 kts | 64° |
| 2026-04-21 14:42 | 34.45781 | 139.62923 | 15128 ft | 432 kts | 65° |
| 2026-04-21 14:42 | 34.46921 | 139.66265 | 14578 ft | 427 kts | 65° |
| 2026-04-21 14:43 | 34.48154 | 139.69502 | 14043 ft | 418 kts | 56° |
| 2026-04-21 14:43 | 34.49927 | 139.72150 | 13846 ft | 394 kts | 38° |
| 2026-04-21 14:43 | 34.52055 | 139.74086 | 13679 ft | 373 kts | 29° |
| 2026-04-21 14:43 | 34.54196 | 139.75747 | 13508 ft | 358 kts | 27° |
| 2026-04-21 14:44 | 34.56277 | 139.77295 | 13349 ft | 344 kts | 26° |
| 2026-04-21 14:44 | 34.58290 | 139.78769 | 13194 ft | 331 kts | 26° |
| 2026-04-21 14:44 | 34.60231 | 139.80183 | 13047 ft | 319 kts | 26° |
| 2026-04-21 14:44 | 34.62100 | 139.81549 | 12902 ft | 308 kts | 26° |
| 2026-04-21 14:45 | 34.63908 | 139.82873 | 12715 ft | 299 kts | 26° |
| 2026-04-21 14:45 | 34.65677 | 139.84170 | 12423 ft | 295 kts | 26° |
| 2026-04-21 14:45 | 34.67480 | 139.85289 | 12073 ft | 287 kts | 13° |
| 2026-04-21 14:45 | 34.69402 | 139.85571 | 11788 ft | 274 kts | 354° |
| 2026-04-21 14:46 | 34.71280 | 139.85403 | 11542 ft | 269 kts | 350° |
| 2026-04-21 14:46 | 34.73136 | 139.85164 | 11313 ft | 267 kts | 350° |
| 2026-04-21 14:46 | 34.74984 | 139.84919 | 11088 ft | 267 kts | 350° |
| 2026-04-21 14:46 | 34.76826 | 139.84673 | 10852 ft | 266 kts | 350° |
| 2026-04-21 14:47 | 34.78663 | 139.84422 | 10631 ft | 265 kts | 349° |
| 2026-04-21 14:47 | 34.80493 | 139.84173 | 10402 ft | 264 kts | 350° |
| 2026-04-21 14:47 | 34.82319 | 139.83933 | 10171 ft | 264 kts | 350° |
| 2026-04-21 14:47 | 34.84140 | 139.83700 | 9934 ft | 263 kts | 351° |
| 2026-04-21 14:48 | 34.85960 | 139.83472 | 9700 ft | 262 kts | 351° |
| 2026-04-21 14:48 | 34.87772 | 139.83247 | 9469 ft | 261 kts | 351° |
| 2026-04-21 14:48 | 34.89578 | 139.83023 | 9249 ft | 261 kts | 351° |
| 2026-04-21 14:48 | 34.91378 | 139.82800 | 9025 ft | 260 kts | 351° |
| 2026-04-21 14:49 | 34.93172 | 139.82578 | 8803 ft | 259 kts | 352° |
| 2026-04-21 14:49 | 34.94961 | 139.82357 | 8573 ft | 258 kts | 351° |
| 2026-04-21 14:49 | 34.96743 | 139.82136 | 8364 ft | 257 kts | 352° |
| 2026-04-21 14:49 | 34.98520 | 139.81916 | 8137 ft | 256 kts | 352° |
| 2026-04-21 14:50 | 34.99694 | 139.81771 | 7993 ft | 256 kts | 352° |
| 2026-04-21 14:50 | 35.02055 | 139.81479 | 7693 ft | 255 kts | 352° |
| 2026-04-21 14:50 | 35.03818 | 139.81260 | 7476 ft | 254 kts | 352° |
| 2026-04-21 14:50 | 35.05551 | 139.81045 | 7261 ft | 253 kts | 352° |
| 2026-04-21 14:51 | 35.07301 | 139.80828 | 7039 ft | 253 kts | 352° |
| 2026-04-21 14:51 | 35.09068 | 139.80609 | 6816 ft | 252 kts | 352° |
| 2026-04-21 14:51 | 35.10788 | 139.80395 | 6606 ft | 251 kts | 353° |
| 2026-04-21 14:51 | 35.12528 | 139.80180 | 6391 ft | 251 kts | 353° |
| 2026-04-21 14:52 | 35.14257 | 139.79964 | 6160 ft | 249 kts | 353° |
| 2026-04-21 14:52 | 35.15977 | 139.79751 | 5950 ft | 248 kts | 353° |
| 2026-04-21 14:52 | 35.17688 | 139.79538 | 5727 ft | 246 kts | 353° |
| 2026-04-21 14:52 | 35.19389 | 139.79327 | 5522 ft | 245 kts | 353° |
| 2026-04-21 14:53 | 35.21082 | 139.79116 | 5314 ft | 244 kts | 353° |
| 2026-04-21 14:53 | 35.22763 | 139.78907 | 5100 ft | 242 kts | 353° |
| 2026-04-21 14:53 | 35.24435 | 139.78699 | 4899 ft | 241 kts | 353° |
| 2026-04-21 14:53 | 35.25128 | 139.78613 | 4805 ft | 240 kts | 353° |
| 2026-04-21 14:54 | 35.26783 | 139.78406 | 4609 ft | 238 kts | 354° |
| 2026-04-21 14:54 | 35.28424 | 139.78202 | 4389 ft | 236 kts | 354° |
| 2026-04-21 14:54 | 35.30050 | 139.78007 | 4190 ft | 233 kts | 355° |
| 2026-04-21 14:54 | 35.31655 | 139.78169 | 4024 ft | 233 kts | 15° |
| 2026-04-21 14:55 | 35.33098 | 139.79066 | 3841 ft | 233 kts | 31° |
| 2026-04-21 14:55 | 35.34409 | 139.80222 | 3527 ft | 232 kts | 34° |
| 2026-04-21 14:55 | 35.35685 | 139.81411 | 3239 ft | 228 kts | 34° |
| 2026-04-21 14:55 | 35.36518 | 139.82183 | 3074 ft | 225 kts | 34° |
| 2026-04-21 14:56 | 35.37767 | 139.83325 | 2830 ft | 224 kts | 34° |
| 2026-04-21 14:56 | 35.39401 | 139.84807 | 2596 ft | 205 kts | 34° |
| 2026-04-21 14:56 | 35.40138 | 139.85479 | 2540 ft | 196 kts | 34° |
| 2026-04-21 14:56 | 35.41246 | 139.86415 | 2452 ft | 192 kts | 28° |
| 2026-04-21 14:57 | 35.42460 | 139.86871 | 2323 ft | 177 kts | 8° |
| 2026-04-21 14:57 | 35.43673 | 139.86901 | 2142 ft | 173 kts | 358° |
| 2026-04-21 14:57 | 35.44810 | 139.86660 | 1981 ft | 159 kts | 348° |
| 2026-04-21 14:57 | 35.45845 | 139.86258 | 1839 ft | 156 kts | 338° |
| 2026-04-21 14:58 | 35.46746 | 139.85588 | 1701 ft | 144 kts | 331° |
| 2026-04-21 14:58 | 35.47593 | 139.85035 | 1565 ft | 135 kts | 335° |
| 2026-04-21 14:58 | 35.48400 | 139.84464 | 1389 ft | 133 kts | 333° |
| 2026-04-21 14:58 | 35.49203 | 139.83893 | 1213 ft | 133 kts | 333° |
| 2026-04-21 14:59 | 35.50009 | 139.83324 | 1028 ft | 134 kts | 333° |
| 2026-04-21 14:59 | 35.50822 | 139.82748 | 833 ft | 136 kts | 333° |
| 2026-04-21 14:59 | 35.51644 | 139.82164 | 659 ft | 137 kts | 332° |
| 2026-04-21 14:59 | 35.52472 | 139.81567 | 457 ft | 139 kts | 333° |
| 2026-04-21 15:00 | 35.53303 | 139.80961 | 297 ft | 140 kts | 333° |
| 2026-04-21 15:00 | 35.54143 | 139.80365 | 106 ft | 139 kts | 334° |
| 2026-04-21 15:00 | 35.54962 | 139.79808 | 30 ft | 118 kts | 331° |
| 2026-04-21 15:00 | 35.55517 | 139.79421 | 30 ft | 73 kts | 329° |
| 2026-04-21 15:01 | 35.55812 | 139.79063 | 29 ft | 42 kts | 301° |
| 2026-04-21 15:01 | 35.55902 | 139.78896 | 29 ft | 15 kts | 319° |
| 2026-04-21 15:01 | 35.55995 | 139.78824 | 29 ft | 17 kts | 328° |
| 2026-04-21 15:01 | 35.56084 | 139.78726 | 29 ft | 17 kts | 280° |
| 2026-04-21 15:02 | 35.56009 | 139.78690 | 29 ft | 15 kts | 161° |
| 2026-04-21 15:02 | 35.55912 | 139.78754 | 29 ft | 17 kts | 149° |
| 2026-04-21 15:02 | 35.55801 | 139.78836 | 29 ft | 20 kts | 149° |
| 2026-04-21 15:02 | 35.55683 | 139.78919 | 29 ft | 18 kts | 151° |
| 2026-04-21 15:03 | 35.55572 | 139.78998 | 29 ft | 17 kts | 150° |
| 2026-04-21 15:03 | 35.55479 | 139.79037 | 29 ft | 11 kts | 193° |
| 2026-04-21 15:03 | 35.55428 | 139.78978 | 29 ft | 11 kts | 235° |
| 2026-04-21 15:03 | 35.55376 | 139.78930 | 29 ft | 7 kts | 181° |
| 2026-04-21 15:04 | 35.55327 | 139.78952 | 29 ft | 9 kts | 149° |
| 2026-04-21 15:04 | 35.55282 | 139.78969 | 29 ft | 2 kts | 205° |
| 2026-04-21 15:04 | 35.55280 | 139.78962 | 29 ft | 0 kts | 241° |
| 2026-04-21 15:04 | 35.55282 | 139.78956 | 29 ft | 1 kts | 267° |
| 2026-04-21 15:05 | 35.55283 | 139.78922 | 29 ft | 5 kts | 264° |
| 2026-04-21 15:05 | 35.55268 | 139.78877 | 29 ft | 0 kts | 243° |